createdAt,value
2022-11-19T00:01:25.184Z,9.21
2022-11-19T00:03:53.143Z,9.21
2022-11-19T00:06:27.581Z,9.22
2022-11-19T00:08:54.743Z,9.23
2022-11-19T00:11:42.154Z,9.22
2022-11-19T00:14:14.037Z,9.24
2022-11-19T00:16:41.372Z,9.22
2022-11-19T00:19:10.463Z,9.24
2022-11-19T00:21:36.930Z,9.24
2022-11-19T00:24:03.721Z,9.25
2022-11-19T00:26:30.280Z,9.26
2022-11-19T00:28:56.812Z,9.25
2022-11-19T00:31:23.959Z,9.26
2022-11-19T00:33:50.889Z,9.24
2022-11-19T00:36:17.714Z,9.25
2022-11-19T00:38:44.388Z,9.25
2022-11-19T00:41:11.427Z,9.25
2022-11-19T00:43:47.047Z,9.23
2022-11-19T00:46:19.398Z,9.23
2022-11-19T00:48:48.455Z,9.20
2022-11-19T00:51:16.072Z,9.21
2022-11-19T00:53:42.574Z,9.19
2022-11-19T00:56:11.741Z,9.18
2022-11-19T00:58:39.053Z,9.15
2022-11-19T01:01:08.291Z,9.17
2022-11-19T01:03:34.885Z,9.18
2022-11-19T01:06:01.363Z,9.18
2022-11-19T01:08:28.043Z,9.20
2022-11-19T01:10:54.635Z,9.19
2022-11-19T01:13:36.613Z,9.20
2022-11-19T01:16:08.419Z,9.21
2022-11-19T01:18:36.809Z,9.20
2022-11-19T01:21:04.492Z,9.23
2022-11-19T01:23:31.400Z,9.24
2022-11-19T01:25:58.113Z,9.23
2022-11-19T01:28:24.836Z,9.21
2022-11-19T01:30:51.369Z,9.18
2022-11-19T01:33:17.922Z,9.14
2022-11-19T01:35:44.457Z,9.09
2022-11-19T01:38:10.927Z,9.07
2022-11-19T01:40:42.816Z,9.02
2022-11-19T01:43:13.515Z,9.01
2022-11-19T01:45:49.016Z,9.00
2022-11-19T01:48:24.126Z,8.98
2022-11-19T01:50:59.022Z,8.95
2022-11-19T01:53:29.741Z,8.94
2022-11-19T01:56:03.796Z,8.92
2022-11-19T01:58:34.105Z,8.91
2022-11-19T02:01:00.867Z,8.91
2022-11-19T02:03:31.152Z,8.93
2022-11-19T02:05:59.042Z,8.94
2022-11-19T02:08:37.876Z,8.95
2022-11-19T02:11:10.061Z,8.97
2022-11-19T02:14:04.588Z,8.99
2022-11-19T02:16:51.096Z,8.98
2022-11-19T02:19:32.948Z,9.01
2022-11-19T02:22:21.461Z,9.01
2022-11-19T02:24:53.664Z,8.99
2022-11-19T02:27:22.806Z,9.01
2022-11-19T02:30:03.429Z,9.02
2022-11-19T02:32:48.043Z,9.00
2022-11-19T02:35:30.653Z,9.00
2022-11-19T02:38:14.765Z,9.00
2022-11-19T02:40:46.846Z,9.00
2022-11-19T02:43:32.941Z,8.99
2022-11-19T02:46:05.158Z,8.98
2022-11-19T02:48:37.304Z,8.96
2022-11-19T02:51:04.812Z,8.96
2022-11-19T02:53:32.375Z,8.95
2022-11-19T02:56:11.312Z,8.94
2022-11-19T02:59:01.775Z,8.89
2022-11-19T03:01:49.653Z,8.88
2022-11-19T03:04:32.418Z,8.87
2022-11-19T03:07:07.596Z,8.83
2022-11-19T03:09:40.282Z,8.81
2022-11-19T03:12:28.659Z,8.80
2022-11-19T03:15:24.613Z,8.78
2022-11-19T03:18:15.913Z,8.78
2022-11-19T03:20:48.288Z,8.74
2022-11-19T03:23:34.597Z,8.75
2022-11-19T03:26:11.880Z,8.75
2022-11-19T03:28:39.028Z,8.77
2022-11-19T03:31:06.852Z,8.74
2022-11-19T03:33:54.036Z,8.68
2022-11-19T03:36:27.189Z,8.71
2022-11-19T03:38:58.740Z,8.70
2022-11-19T03:41:27.262Z,8.72
2022-11-19T03:44:01.135Z,8.70
2022-11-19T03:46:30.824Z,8.73
2022-11-19T03:48:59.809Z,8.74
2022-11-19T03:51:35.398Z,8.74
2022-11-19T03:54:02.606Z,8.73
2022-11-19T03:56:30.864Z,8.74
2022-11-19T03:58:58.968Z,8.73
2022-11-19T04:01:25.710Z,8.73
2022-11-19T04:04:10.952Z,8.73
2022-11-19T04:06:37.510Z,8.75
2022-11-19T04:09:04.275Z,8.75
2022-11-19T04:11:31.526Z,8.77
2022-11-19T04:13:58.111Z,8.77
2022-11-19T04:16:24.612Z,8.78
2022-11-19T04:18:51.143Z,8.79
2022-11-19T04:21:17.640Z,8.79
2022-11-19T04:23:44.226Z,8.79
2022-11-19T04:26:10.755Z,8.80
2022-11-19T04:28:37.231Z,8.82
2022-11-19T04:31:03.775Z,8.83
2022-11-19T04:33:30.324Z,8.85
2022-11-19T04:35:56.790Z,8.84
2022-11-19T04:38:23.268Z,8.86
2022-11-19T04:40:49.825Z,8.88
2022-11-19T04:43:16.289Z,8.87
2022-11-19T04:45:42.757Z,8.87
2022-11-19T04:48:09.312Z,8.87
2022-11-19T04:50:35.809Z,8.89
2022-11-19T04:53:02.297Z,8.90
2022-11-19T04:55:28.918Z,8.90
2022-11-19T04:57:55.420Z,8.91
2022-11-19T05:00:22.979Z,8.91
2022-11-19T05:02:49.468Z,8.91
2022-11-19T05:05:16.015Z,8.92
2022-11-19T05:07:42.507Z,8.91
2022-11-19T05:10:09.553Z,8.93
2022-11-19T05:12:36.026Z,8.94
2022-11-19T05:15:02.513Z,8.94
2022-11-19T05:17:29.009Z,8.94
2022-11-19T05:19:55.524Z,8.94
2022-11-19T05:22:22.056Z,8.92
2022-11-19T05:24:48.553Z,8.94
2022-11-19T05:27:15.124Z,8.95
2022-11-19T05:29:41.750Z,8.96
2022-11-19T05:32:08.293Z,8.96
2022-11-19T05:34:34.794Z,8.98
2022-11-19T05:37:01.315Z,8.99
2022-11-19T05:39:28.477Z,8.98
2022-11-19T05:41:55.220Z,9.00
2022-11-19T05:44:21.733Z,9.00
2022-11-19T05:46:48.224Z,9.01
2022-11-19T05:49:14.710Z,9.03
2022-11-19T05:51:41.169Z,9.02
2022-11-19T05:54:07.723Z,9.03
2022-11-19T05:56:34.225Z,9.02
2022-11-19T05:59:00.674Z,9.04
2022-11-19T06:01:29.367Z,9.02
2022-11-19T06:03:56.185Z,9.05
2022-11-19T06:06:23.111Z,9.05
2022-11-19T06:08:50.300Z,9.06
2022-11-19T06:11:35.297Z,9.04
2022-11-19T06:14:01.830Z,9.06
2022-11-19T06:16:28.344Z,9.06
2022-11-19T06:18:55.248Z,9.07
2022-11-19T06:21:21.940Z,9.08
2022-11-19T06:23:48.433Z,9.07
2022-11-19T06:26:29.016Z,9.06
2022-11-19T06:28:56.358Z,9.08
2022-11-19T06:31:23.166Z,9.09
2022-11-19T06:33:50.091Z,9.09
2022-11-19T06:36:16.704Z,9.09
2022-11-19T06:38:43.193Z,9.10
2022-11-19T06:41:09.714Z,9.11
2022-11-19T06:43:36.204Z,9.10
2022-11-19T06:46:02.849Z,9.08
2022-11-19T06:48:29.373Z,9.08
2022-11-19T06:50:56.820Z,9.08
2022-11-19T06:53:23.562Z,9.06
2022-11-19T06:56:06.262Z,9.04
2022-11-19T06:58:32.757Z,9.04
2022-11-19T07:01:02.133Z,9.02
2022-11-19T07:03:28.628Z,9.00
2022-11-19T07:05:58.885Z,8.97
2022-11-19T07:08:25.805Z,8.96
2022-11-19T07:10:52.401Z,8.95
2022-11-19T07:13:18.961Z,8.91
2022-11-19T07:15:45.437Z,8.89
2022-11-19T07:18:11.994Z,8.83
2022-11-19T07:20:38.474Z,8.78
2022-11-19T07:23:09.858Z,8.74
2022-11-19T07:25:36.723Z,8.67
2022-11-19T07:28:03.269Z,8.60
2022-11-19T07:30:31.376Z,8.52
2022-11-19T07:32:58.334Z,8.48
2022-11-19T07:35:25.004Z,8.45
2022-11-19T07:37:51.471Z,8.42
2022-11-19T07:40:18.134Z,8.43
2022-11-19T07:42:50.571Z,8.43
2022-11-19T07:45:22.144Z,8.47
2022-11-19T07:47:48.980Z,8.44
2022-11-19T07:50:17.150Z,8.45
2022-11-19T07:52:43.777Z,8.43
2022-11-19T07:55:10.847Z,8.39
2022-11-19T07:57:37.343Z,8.38
2022-11-19T08:00:06.082Z,8.36
2022-11-19T08:02:32.580Z,8.36
2022-11-19T08:04:59.269Z,8.37
2022-11-19T08:07:25.851Z,8.40
2022-11-19T08:09:52.370Z,8.37
2022-11-19T08:12:18.923Z,8.40
2022-11-19T08:14:45.476Z,8.38
2022-11-19T08:17:30.343Z,8.41
2022-11-19T08:19:56.902Z,8.43
2022-11-19T08:22:23.462Z,8.44
2022-11-19T08:24:49.990Z,8.46
2022-11-19T08:27:17.333Z,8.50
2022-11-19T08:29:43.942Z,8.53
2022-11-19T08:32:10.457Z,8.53
2022-11-19T08:34:37.046Z,8.56
2022-11-19T08:37:03.591Z,8.57
2022-11-19T08:39:30.747Z,8.57
2022-11-19T08:42:16.242Z,8.61
2022-11-19T08:44:42.751Z,8.61
2022-11-19T08:47:09.200Z,8.63
2022-11-19T08:49:35.721Z,8.66
2022-11-19T08:52:02.258Z,8.65
2022-11-19T08:54:28.761Z,8.68
2022-11-19T08:56:55.254Z,8.69
2022-11-19T08:59:22.004Z,8.72
2022-11-19T09:01:50.011Z,8.72
2022-11-19T09:04:17.451Z,8.75
2022-11-19T09:06:44.084Z,8.74
2022-11-19T09:09:10.588Z,8.76
2022-11-19T09:11:42.232Z,8.75
2022-11-19T09:14:09.051Z,8.77
2022-11-19T09:16:35.561Z,8.79
2022-11-19T09:19:02.301Z,8.80
2022-11-19T09:21:29.369Z,8.82
2022-11-19T09:23:55.867Z,8.85
2022-11-19T09:26:22.387Z,8.86
2022-11-19T09:28:49.449Z,8.88
2022-11-19T09:31:18.377Z,8.91
2022-11-19T09:33:48.317Z,8.93
2022-11-19T09:36:15.910Z,8.94
2022-11-19T09:38:42.758Z,8.98
2022-11-19T09:41:18.005Z,9.01
2022-11-19T09:43:47.556Z,9.04
2022-11-19T09:46:26.405Z,9.06
2022-11-19T09:48:56.500Z,9.07
2022-11-19T09:51:30.539Z,9.10
2022-11-19T09:54:12.431Z,9.12
2022-11-19T09:56:43.309Z,9.12
2022-11-19T09:59:38.039Z,9.14
2022-11-19T10:02:17.348Z,9.15
2022-11-19T10:04:45.542Z,9.17
2022-11-19T10:07:21.104Z,9.20
2022-11-19T10:10:12.338Z,9.20
2022-11-19T10:13:11.887Z,9.21
2022-11-19T10:15:56.824Z,9.21
2022-11-19T10:19:02.416Z,9.21
2022-11-19T10:21:54.480Z,9.23
2022-11-19T10:24:39.015Z,9.24
2022-11-19T10:27:18.145Z,9.25
2022-11-19T10:29:47.629Z,9.26
2022-11-19T10:32:37.916Z,9.28
2022-11-19T10:35:15.105Z,9.27
2022-11-19T10:38:05.603Z,9.25
2022-11-19T10:40:45.130Z,9.30
2022-11-19T10:43:23.665Z,9.27
2022-11-19T10:45:50.654Z,9.32
2022-11-19T10:48:29.112Z,9.32
2022-11-19T10:50:58.825Z,9.34
2022-11-19T10:53:29.438Z,9.36
2022-11-19T10:56:03.260Z,9.36
2022-11-19T10:58:36.919Z,9.34
2022-11-19T11:01:05.628Z,9.38
2022-11-19T11:03:50.288Z,9.38
2022-11-19T11:06:16.917Z,9.40
2022-11-19T11:08:52.230Z,9.38
2022-11-19T11:11:21.602Z,9.43
2022-11-19T11:14:06.964Z,9.42
2022-11-19T11:16:47.580Z,9.42
2022-11-19T11:19:19.868Z,9.42
2022-11-19T11:21:51.408Z,9.46
2022-11-19T11:24:17.947Z,9.47
2022-11-19T11:26:44.629Z,9.49
2022-11-19T11:29:14.013Z,9.49
2022-11-19T11:31:47.764Z,9.50
2022-11-19T11:34:29.956Z,9.50
2022-11-19T11:36:57.943Z,9.51
2022-11-19T11:39:28.213Z,9.55
2022-11-19T11:42:06.041Z,9.55
2022-11-19T11:44:36.525Z,9.56
2022-11-19T11:47:11.680Z,9.57
2022-11-19T11:49:41.785Z,9.59
2022-11-19T11:52:11.209Z,9.60
2022-11-19T11:54:59.444Z,9.61
2022-11-19T11:57:34.528Z,9.61
2022-11-19T12:00:03.870Z,9.60
2022-11-19T12:02:35.439Z,9.61
2022-11-19T12:05:05.214Z,9.64
2022-11-19T12:07:53.168Z,9.65
2022-11-19T12:10:31.698Z,9.65
2022-11-19T12:13:30.528Z,9.65
2022-11-19T12:16:13.680Z,9.66
2022-11-19T12:18:52.185Z,9.65
2022-11-19T12:21:52.940Z,9.65
2022-11-19T12:24:46.302Z,9.68
2022-11-19T12:27:21.994Z,9.68
2022-11-19T12:30:03.476Z,9.69
2022-11-19T12:32:50.030Z,9.69
2022-11-19T12:35:43.569Z,9.67
2022-11-19T12:38:12.703Z,9.70
2022-11-19T12:40:58.042Z,9.71
2022-11-19T12:43:30.411Z,9.70
2022-11-19T12:46:09.033Z,9.71
2022-11-19T12:48:36.616Z,9.72
2022-11-19T12:51:12.881Z,9.73
2022-11-19T12:53:57.860Z,9.75
2022-11-19T12:56:57.998Z,9.76
2022-11-19T12:59:43.073Z,9.77
2022-11-19T13:02:21.618Z,9.78
2022-11-19T13:05:02.397Z,9.82
2022-11-19T13:07:34.744Z,9.86
2022-11-19T13:10:21.181Z,9.89
2022-11-19T13:12:55.268Z,9.95
2022-11-19T13:15:28.190Z,10.01
2022-11-19T13:17:57.745Z,10.07
2022-11-19T13:20:50.829Z,10.13
2022-11-19T13:23:40.108Z,10.20
2022-11-19T13:26:13.160Z,10.22
2022-11-19T13:28:47.010Z,10.24
2022-11-19T13:31:28.608Z,10.29
2022-11-19T13:34:16.952Z,10.29
2022-11-19T13:36:49.337Z,10.32
2022-11-19T13:39:26.203Z,10.36
2022-11-19T13:42:13.936Z,10.35
2022-11-19T13:44:43.527Z,10.36
2022-11-19T13:47:24.150Z,10.36
2022-11-19T13:50:00.303Z,10.37
2022-11-19T13:52:26.908Z,10.38
2022-11-19T13:54:54.576Z,10.38
2022-11-19T13:57:28.198Z,10.36
2022-11-19T14:00:25.444Z,10.36
2022-11-19T14:03:17.577Z,10.34
2022-11-19T14:06:08.590Z,10.36
2022-11-19T14:08:56.188Z,10.36
2022-11-19T14:11:31.744Z,10.35
2022-11-19T14:14:01.197Z,10.34
2022-11-19T14:17:08.757Z,10.33
2022-11-19T14:20:16.151Z,10.29
2022-11-19T14:23:12.594Z,10.25
2022-11-19T14:25:57.454Z,10.28
2022-11-19T14:28:42.016Z,10.25
2022-11-19T14:31:08.883Z,10.25
2022-11-19T14:33:47.638Z,10.24
2022-11-19T14:36:22.187Z,10.24
2022-11-19T14:38:56.106Z,10.21
2022-11-19T14:41:34.544Z,10.22
2022-11-19T14:44:10.197Z,10.21
2022-11-19T14:46:46.308Z,10.21
2022-11-19T14:49:39.913Z,10.21
2022-11-19T14:52:21.273Z,10.20
2022-11-19T14:54:55.207Z,10.21
2022-11-19T14:57:28.597Z,10.18
2022-11-19T15:00:05.492Z,10.19
2022-11-19T15:02:45.770Z,10.17
2022-11-19T15:05:28.168Z,10.18
2022-11-19T15:08:16.691Z,10.16
2022-11-19T15:11:10.158Z,10.16
2022-11-19T15:13:44.934Z,10.15
2022-11-19T15:16:15.147Z,10.10
2022-11-19T15:18:41.624Z,10.12
2022-11-19T15:21:30.073Z,10.10
2022-11-19T15:24:21.531Z,10.09
2022-11-19T15:27:06.817Z,10.05
2022-11-19T15:29:51.450Z,10.04
2022-11-19T15:32:24.092Z,9.99
2022-11-19T15:35:19.688Z,9.97
2022-11-19T15:37:53.294Z,9.94
2022-11-19T15:40:24.562Z,9.89
2022-11-19T15:42:59.702Z,9.86
2022-11-19T15:45:31.496Z,9.85
2022-11-19T15:48:19.699Z,9.81
2022-11-19T15:50:48.551Z,9.78
2022-11-19T15:53:16.729Z,9.75
2022-11-19T15:56:03.791Z,9.74
2022-11-19T15:58:45.134Z,9.70
2022-11-19T16:01:20.532Z,9.66
2022-11-19T16:03:47.784Z,9.62
2022-11-19T16:06:19.478Z,9.59
2022-11-19T16:08:51.220Z,9.57
2022-11-19T16:11:38.033Z,9.54
2022-11-19T16:14:47.273Z,9.48
2022-11-19T16:17:43.538Z,9.44
2022-11-19T16:20:10.588Z,9.42
2022-11-19T16:22:48.875Z,9.40
2022-11-19T16:25:42.277Z,9.38
2022-11-19T16:28:18.360Z,9.36
2022-11-19T16:30:51.557Z,9.33
2022-11-19T16:33:24.264Z,9.30
2022-11-19T16:35:53.561Z,9.31
2022-11-19T16:38:29.465Z,9.29
2022-11-19T16:41:15.784Z,9.24
2022-11-19T16:43:44.895Z,9.26
2022-11-19T16:46:17.495Z,9.25
2022-11-19T16:48:49.745Z,9.23
2022-11-19T16:51:49.964Z,9.21
2022-11-19T16:54:51.402Z,9.19
2022-11-19T16:57:21.138Z,9.16
2022-11-19T16:59:54.677Z,9.15
2022-11-19T17:02:24.298Z,9.14
2022-11-19T17:04:53.766Z,9.12
2022-11-19T17:07:27.889Z,9.13
2022-11-19T17:10:31.752Z,9.11
2022-11-19T17:13:04.162Z,9.08
2022-11-19T17:15:38.631Z,9.08
2022-11-19T17:18:20.702Z,9.07
2022-11-19T17:20:50.060Z,9.06
2022-11-19T17:23:17.840Z,9.04
2022-11-19T17:25:48.314Z,9.01
2022-11-19T17:28:20.549Z,9.01
2022-11-19T17:30:49.610Z,8.99
2022-11-19T17:33:18.236Z,8.97
2022-11-19T17:35:46.937Z,8.94
2022-11-19T17:38:25.164Z,8.94
2022-11-19T17:40:57.283Z,8.92
2022-11-19T17:43:48.547Z,8.95
2022-11-19T17:46:15.083Z,8.94
2022-11-19T17:48:43.575Z,8.91
2022-11-19T17:51:15.035Z,8.91
2022-11-19T17:53:42.013Z,8.93
2022-11-19T17:56:28.276Z,8.91
2022-11-19T17:58:55.347Z,8.89
2022-11-19T18:01:22.625Z,8.87
2022-11-19T18:03:49.634Z,8.87
2022-11-19T18:06:17.469Z,8.88
2022-11-19T18:08:44.709Z,8.89
2022-11-19T18:11:26.462Z,8.83
2022-11-19T18:13:55.289Z,8.85
2022-11-19T18:16:24.024Z,8.84
2022-11-19T18:18:51.192Z,8.82
2022-11-19T18:21:22.567Z,8.82
2022-11-19T18:23:51.384Z,8.82
2022-11-19T18:26:20.630Z,8.82
2022-11-19T18:28:49.029Z,8.82
2022-11-19T18:31:19.479Z,8.84
2022-11-19T18:33:48.032Z,8.83
2022-11-19T18:36:15.204Z,8.83
2022-11-19T18:38:42.736Z,8.81
2022-11-19T18:41:13.941Z,8.81
2022-11-19T18:43:59.712Z,8.80
2022-11-19T18:46:26.797Z,8.79
2022-11-19T18:48:56.275Z,8.79
2022-11-19T18:51:23.329Z,8.80
2022-11-19T18:53:49.889Z,8.79
2022-11-19T18:56:18.328Z,8.78
2022-11-19T18:58:44.950Z,8.76
2022-11-19T19:01:13.120Z,8.76
2022-11-19T19:03:39.729Z,8.77
2022-11-19T19:06:08.092Z,8.77
2022-11-19T19:08:35.559Z,8.75
2022-11-19T19:11:26.239Z,8.75
2022-11-19T19:13:53.356Z,8.75
2022-11-19T19:16:20.084Z,8.73
2022-11-19T19:18:48.465Z,8.73
2022-11-19T19:21:17.079Z,8.72
2022-11-19T19:23:44.002Z,8.69
2022-11-19T19:26:12.599Z,8.70
2022-11-19T19:28:39.876Z,8.68
2022-11-19T19:31:07.238Z,8.68
2022-11-19T19:33:34.569Z,8.68
2022-11-19T19:36:05.481Z,8.65
2022-11-19T19:38:35.279Z,8.64
2022-11-19T19:41:06.457Z,8.65
2022-11-19T19:43:33.177Z,8.64
2022-11-19T19:46:09.113Z,8.63
2022-11-19T19:48:36.744Z,8.63
2022-11-19T19:51:03.940Z,8.64
2022-11-19T19:53:30.917Z,8.62
2022-11-19T19:56:10.271Z,8.62
2022-11-19T19:58:38.232Z,8.59
2022-11-19T20:01:10.536Z,8.58
2022-11-19T20:03:37.243Z,8.60
2022-11-19T20:06:06.252Z,8.61
2022-11-19T20:08:38.109Z,8.59
2022-11-19T20:11:16.487Z,8.59
2022-11-19T20:13:43.822Z,8.59
2022-11-19T20:16:17.535Z,8.61
2022-11-19T20:18:46.367Z,8.58
2022-11-19T20:21:15.504Z,8.56
2022-11-19T20:23:42.789Z,8.55
2022-11-19T20:26:15.172Z,8.50
2022-11-19T20:28:41.708Z,8.50
2022-11-19T20:31:11.799Z,8.45
2022-11-19T20:33:39.369Z,8.44
2022-11-19T20:36:07.864Z,8.42
2022-11-19T20:38:38.862Z,8.41
2022-11-19T20:41:07.567Z,8.38
2022-11-19T20:43:53.416Z,8.37
2022-11-19T20:46:24.199Z,8.35
2022-11-19T20:48:50.669Z,8.34
2022-11-19T20:51:19.772Z,8.31
2022-11-19T20:53:46.714Z,8.30
2022-11-19T20:56:14.480Z,8.29
2022-11-19T20:58:41.205Z,8.29
2022-11-19T21:01:12.246Z,8.28
2022-11-19T21:03:39.567Z,8.29
2022-11-19T21:06:07.574Z,8.29
2022-11-19T21:08:35.509Z,8.29
2022-11-19T21:11:09.108Z,8.28
2022-11-19T21:13:36.742Z,8.28
2022-11-19T21:16:07.029Z,8.26
2022-11-19T21:18:36.750Z,8.24
2022-11-19T21:21:06.892Z,8.20
2022-11-19T21:23:34.853Z,8.19
2022-11-19T21:26:03.605Z,8.20
2022-11-19T21:28:31.279Z,8.17
2022-11-19T21:30:58.247Z,8.16
2022-11-19T21:33:28.380Z,8.14
2022-11-19T21:35:56.151Z,8.15
2022-11-19T21:38:24.263Z,8.16
2022-11-19T21:40:55.780Z,8.16
2022-11-19T21:43:23.895Z,8.11
2022-11-19T21:45:52.091Z,8.13
2022-11-19T21:48:18.829Z,8.12
2022-11-19T21:50:45.850Z,8.11
2022-11-19T21:53:13.034Z,8.10
2022-11-19T21:55:42.349Z,8.09
2022-11-19T21:58:11.992Z,8.08
2022-11-19T22:00:39.539Z,8.09
2022-11-19T22:03:07.146Z,8.08
2022-11-19T22:05:34.304Z,8.07
2022-11-19T22:08:01.243Z,8.08
2022-11-19T22:10:28.416Z,8.06
2022-11-19T22:12:57.461Z,8.03
2022-11-19T22:15:24.270Z,8.04
2022-11-19T22:17:50.798Z,8.04
2022-11-19T22:20:17.385Z,8.02
2022-11-19T22:22:45.190Z,8.01
2022-11-19T22:25:13.167Z,8.00
2022-11-19T22:27:41.591Z,8.00
2022-11-19T22:30:09.740Z,8.00
2022-11-19T22:32:36.296Z,7.97
2022-11-19T22:35:02.816Z,7.96
2022-11-19T22:37:29.356Z,7.96
2022-11-19T22:39:55.834Z,7.94
2022-11-19T22:42:22.363Z,7.95
2022-11-19T22:44:48.818Z,7.95
2022-11-19T22:47:15.400Z,7.92
2022-11-19T22:49:42.038Z,7.93
2022-11-19T22:52:08.519Z,7.91
2022-11-19T22:54:40.118Z,7.91
2022-11-19T22:57:07.987Z,7.88
2022-11-19T22:59:34.432Z,7.85
2022-11-19T23:02:00.944Z,7.87
2022-11-19T23:04:28.939Z,7.85
2022-11-19T23:06:55.522Z,7.85
2022-11-19T23:09:22.405Z,7.85
2022-11-19T23:12:27.175Z,7.85
2022-11-19T23:14:53.672Z,7.84
2022-11-19T23:17:20.260Z,7.84
2022-11-19T23:19:46.730Z,7.81
2022-11-19T23:22:13.236Z,7.80
2022-11-19T23:24:39.694Z,7.80
2022-11-19T23:27:06.169Z,7.80
2022-11-19T23:29:34.025Z,7.81
2022-11-19T23:32:00.560Z,7.79
2022-11-19T23:34:27.057Z,7.78
2022-11-19T23:36:53.616Z,7.77
2022-11-19T23:39:20.398Z,7.77
2022-11-19T23:41:47.080Z,7.77
2022-11-19T23:44:13.793Z,7.75
2022-11-19T23:46:40.506Z,7.77
2022-11-19T23:49:07.200Z,7.77
2022-11-19T23:51:36.449Z,7.73
2022-11-19T23:54:03.915Z,7.74
2022-11-19T23:56:32.537Z,7.71
2022-11-19T23:59:01.232Z,7.70
